sensor_id;sensor_type;location;lat;lon;timestamp;temperature;humidity
66728;DHT22;53641;44.274;19.890;2023-12-20T00:01:32;3.40;94.00
66728;DHT22;53641;44.274;19.890;2023-12-20T00:03:58;4.10;93.80
66728;DHT22;53641;44.274;19.890;2023-12-20T00:06:23;3.40;94.10
66728;DHT22;53641;44.274;19.890;2023-12-20T00:08:49;2.70;93.60
66728;DHT22;53641;44.274;19.890;2023-12-20T00:11:15;3.50;93.80
66728;DHT22;53641;44.274;19.890;2023-12-20T00:13:40;3.90;94.30
66728;DHT22;53641;44.274;19.890;2023-12-20T00:16:06;3.50;94.30
66728;DHT22;53641;44.274;19.890;2023-12-20T00:18:32;3.10;93.70
66728;DHT22;53641;44.274;19.890;2023-12-20T00:20:57;3.60;94.10
66728;DHT22;53641;44.274;19.890;2023-12-20T00:23:23;4.30;94.20
66728;DHT22;53641;44.274;19.890;2023-12-20T00:25:49;4.50;94.50
66728;DHT22;53641;44.274;19.890;2023-12-20T00:28:14;3.40;93.90
66728;DHT22;53641;44.274;19.890;2023-12-20T00:30:40;3.50;94.00
66728;DHT22;53641;44.274;19.890;2023-12-20T00:33:06;3.40;93.80
66728;DHT22;53641;44.274;19.890;2023-12-20T00:35:31;3.90;94.10
66728;DHT22;53641;44.274;19.890;2023-12-20T00:37:58;2.70;93.90
66728;DHT22;53641;44.274;19.890;2023-12-20T00:40:23;2.30;93.60
66728;DHT22;53641;44.274;19.890;2023-12-20T00:42:49;2.90;93.80
66728;DHT22;53641;44.274;19.890;2023-12-20T00:45:15;2.30;93.70
66728;DHT22;53641;44.274;19.890;2023-12-20T00:47:40;2.80;93.70
66728;DHT22;53641;44.274;19.890;2023-12-20T00:50:06;3.50;93.60
66728;DHT22;53641;44.274;19.890;2023-12-20T00:52:32;2.90;93.30
66728;DHT22;53641;44.274;19.890;2023-12-20T00:54:58;3.40;93.40
66728;DHT22;53641;44.274;19.890;2023-12-20T00:57:23;3.40;93.30
66728;DHT22;53641;44.274;19.890;2023-12-20T00:59:49;2.30;93.20
66728;DHT22;53641;44.274;19.890;2023-12-20T01:02:14;3.30;93.40
66728;DHT22;53641;44.274;19.890;2023-12-20T01:04:42;3.50;93.40
66728;DHT22;53641;44.274;19.890;2023-12-20T01:07:08;3.10;93.20
66728;DHT22;53641;44.274;19.890;2023-12-20T01:09:34;3.40;93.50
66728;DHT22;53641;44.274;19.890;2023-12-20T01:11:59;3.10;93.30
66728;DHT22;53641;44.274;19.890;2023-12-20T01:14:25;3.40;93.10
66728;DHT22;53641;44.274;19.890;2023-12-20T01:16:51;2.90;93.00
66728;DHT22;53641;44.274;19.890;2023-12-20T01:19:16;3.40;93.00
66728;DHT22;53641;44.274;19.890;2023-12-20T01:21:42;3.40;93.20
66728;DHT22;53641;44.274;19.890;2023-12-20T01:24:08;3.80;93.10
66728;DHT22;53641;44.274;19.890;2023-12-20T01:26:33;3.10;93.10
66728;DHT22;53641;44.274;19.890;2023-12-20T01:28:59;3.30;93.10
66728;DHT22;53641;44.274;19.890;2023-12-20T01:31:25;3.30;93.10
66728;DHT22;53641;44.274;19.890;2023-12-20T01:33:52;3.30;93.10
66728;DHT22;53641;44.274;19.890;2023-12-20T01:36:18;3.30;93.10
66728;DHT22;53641;44.274;19.890;2023-12-20T01:38:44;3.90;93.70
66728;DHT22;53641;44.274;19.890;2023-12-20T01:41:09;1.80;93.10
66728;DHT22;53641;44.274;19.890;2023-12-20T01:43:35;2.20;93.10
66728;DHT22;53641;44.274;19.890;2023-12-20T01:46:01;3.60;93.30
66728;DHT22;53641;44.274;19.890;2023-12-20T01:48:26;3.30;93.30
66728;DHT22;53641;44.274;19.890;2023-12-20T01:50:53;2.70;92.90
66728;DHT22;53641;44.274;19.890;2023-12-20T01:53:20;3.30;93.00
66728;DHT22;53641;44.274;19.890;2023-12-20T01:55:46;3.20;92.90
66728;DHT22;53641;44.274;19.890;2023-12-20T01:58:13;3.20;93.00
66728;DHT22;53641;44.274;19.890;2023-12-20T02:00:39;3.40;93.10
66728;DHT22;53641;44.274;19.890;2023-12-20T02:03:09;3.00;92.90
66728;DHT22;53641;44.274;19.890;2023-12-20T02:05:35;3.50;92.80
66728;DHT22;53641;44.274;19.890;2023-12-20T02:08:01;3.10;92.60
66728;DHT22;53641;44.274;19.890;2023-12-20T02:10:27;3.30;93.00
66728;DHT22;53641;44.274;19.890;2023-12-20T02:12:52;3.00;93.20
66728;DHT22;53641;44.274;19.890;2023-12-20T02:15:18;3.10;93.20
66728;DHT22;53641;44.274;19.890;2023-12-20T02:17:44;3.20;93.00
66728;DHT22;53641;44.274;19.890;2023-12-20T02:20:10;2.40;92.90
66728;DHT22;53641;44.274;19.890;2023-12-20T02:22:36;3.00;93.00
66728;DHT22;53641;44.274;19.890;2023-12-20T02:25:02;3.20;93.10
66728;DHT22;53641;44.274;19.890;2023-12-20T02:27:27;2.90;93.10
66728;DHT22;53641;44.274;19.890;2023-12-20T02:29:54;3.30;92.80
66728;DHT22;53641;44.274;19.890;2023-12-20T02:32:20;2.80;92.70
66728;DHT22;53641;44.274;19.890;2023-12-20T02:34:49;3.30;92.50
66728;DHT22;53641;44.274;19.890;2023-12-20T02:37:15;3.80;92.70
66728;DHT22;53641;44.274;19.890;2023-12-20T02:39:40;2.80;92.70
66728;DHT22;53641;44.274;19.890;2023-12-20T02:42:06;2.60;92.70
66728;DHT22;53641;44.274;19.890;2023-12-20T02:44:32;2.20;92.70
66728;DHT22;53641;44.274;19.890;2023-12-20T02:46:57;2.70;92.80
66728;DHT22;53641;44.274;19.890;2023-12-20T02:49:23;2.90;92.90
66728;DHT22;53641;44.274;19.890;2023-12-20T02:51:49;2.80;93.20
66728;DHT22;53641;44.274;19.890;2023-12-20T02:54:14;2.70;93.40
66728;DHT22;53641;44.274;19.890;2023-12-20T02:56:40;2.80;93.70
66728;DHT22;53641;44.274;19.890;2023-12-20T02:59:06;2.50;93.90
66728;DHT22;53641;44.274;19.890;2023-12-20T03:01:33;1.00;93.40
66728;DHT22;53641;44.274;19.890;2023-12-20T03:03:59;2.50;93.90
66728;DHT22;53641;44.274;19.890;2023-12-20T03:06:25;2.70;94.30
66728;DHT22;53641;44.274;19.890;2023-12-20T03:08:51;2.60;94.20
66728;DHT22;53641;44.274;19.890;2023-12-20T03:11:16;1.90;93.90
66728;DHT22;53641;44.274;19.890;2023-12-20T03:13:42;2.00;94.30
66728;DHT22;53641;44.274;19.890;2023-12-20T03:16:08;2.10;94.30
66728;DHT22;53641;44.274;19.890;2023-12-20T03:18:34;2.00;94.30
66728;DHT22;53641;44.274;19.890;2023-12-20T03:20:59;2.00;94.60
66728;DHT22;53641;44.274;19.890;2023-12-20T03:23:25;1.20;94.30
66728;DHT22;53641;44.274;19.890;2023-12-20T03:25:52;2.00;94.60
66728;DHT22;53641;44.274;19.890;2023-12-20T03:28:18;1.50;94.40
66728;DHT22;53641;44.274;19.890;2023-12-20T03:30:44;2.00;94.50
66728;DHT22;53641;44.274;19.890;2023-12-20T03:33:10;2.30;95.00
66728;DHT22;53641;44.274;19.890;2023-12-20T03:35:35;1.40;94.50
66728;DHT22;53641;44.274;19.890;2023-12-20T03:38:01;1.80;94.40
66728;DHT22;53641;44.274;19.890;2023-12-20T03:40:27;1.10;94.40
66728;DHT22;53641;44.274;19.890;2023-12-20T03:42:52;1.60;94.50
66728;DHT22;53641;44.274;19.890;2023-12-20T03:45:18;1.00;94.40
66728;DHT22;53641;44.274;19.890;2023-12-20T03:47:44;1.90;94.70
66728;DHT22;53641;44.274;19.890;2023-12-20T03:50:09;2.00;94.50
66728;DHT22;53641;44.274;19.890;2023-12-20T03:52:35;2.40;94.80
66728;DHT22;53641;44.274;19.890;2023-12-20T03:55:01;3.40;95.30
66728;DHT22;53641;44.274;19.890;2023-12-20T03:57:26;2.00;94.50
66728;DHT22;53641;44.274;19.890;2023-12-20T03:59:52;1.80;94.50
66728;DHT22;53641;44.274;19.890;2023-12-20T04:02:17;1.50;94.80
66728;DHT22;53641;44.274;19.890;2023-12-20T04:04:43;1.40;94.80
66728;DHT22;53641;44.274;19.890;2023-12-20T04:07:09;1.80;95.00
66728;DHT22;53641;44.274;19.890;2023-12-20T04:09:34;3.70;95.50
66728;DHT22;53641;44.274;19.890;2023-12-20T04:12:00;2.70;95.20
66728;DHT22;53641;44.274;19.890;2023-12-20T04:14:26;2.90;95.00
66728;DHT22;53641;44.274;19.890;2023-12-20T04:16:52;2.00;94.60
66728;DHT22;53641;44.274;19.890;2023-12-20T04:19:17;1.30;94.30
66728;DHT22;53641;44.274;19.890;2023-12-20T04:21:43;1.60;94.90
66728;DHT22;53641;44.274;19.890;2023-12-20T04:24:09;2.00;95.00
66728;DHT22;53641;44.274;19.890;2023-12-20T04:26:34;2.80;95.10
66728;DHT22;53641;44.274;19.890;2023-12-20T04:29:00;2.00;95.50
66728;DHT22;53641;44.274;19.890;2023-12-20T04:31:26;1.40;95.20
66728;DHT22;53641;44.274;19.890;2023-12-20T04:33:51;1.70;95.10
66728;DHT22;53641;44.274;19.890;2023-12-20T04:36:17;1.30;95.00
66728;DHT22;53641;44.274;19.890;2023-12-20T04:38:42;1.70;94.60
66728;DHT22;53641;44.274;19.890;2023-12-20T04:41:08;2.10;94.50
66728;DHT22;53641;44.274;19.890;2023-12-20T04:43:34;1.40;94.50
66728;DHT22;53641;44.274;19.890;2023-12-20T04:45:59;2.20;94.80
66728;DHT22;53641;44.274;19.890;2023-12-20T04:48:25;1.90;94.20
66728;DHT22;53641;44.274;19.890;2023-12-20T04:50:51;1.60;94.20
66728;DHT22;53641;44.274;19.890;2023-12-20T04:53:16;1.00;93.70
66728;DHT22;53641;44.274;19.890;2023-12-20T04:55:42;2.10;94.10
66728;DHT22;53641;44.274;19.890;2023-12-20T04:58:07;2.50;94.20
66728;DHT22;53641;44.274;19.890;2023-12-20T05:00:33;2.80;94.50
66728;DHT22;53641;44.274;19.890;2023-12-20T05:02:59;3.30;94.30
66728;DHT22;53641;44.274;19.890;2023-12-20T05:05:25;2.60;93.30
66728;DHT22;53641;44.274;19.890;2023-12-20T05:07:50;1.90;93.20
66728;DHT22;53641;44.274;19.890;2023-12-20T05:10:19;2.20;92.90
66728;DHT22;53641;44.274;19.890;2023-12-20T05:12:45;2.90;93.10
66728;DHT22;53641;44.274;19.890;2023-12-20T05:15:10;3.10;92.80
66728;DHT22;53641;44.274;19.890;2023-12-20T05:17:36;3.10;92.80
66728;DHT22;53641;44.274;19.890;2023-12-20T05:20:02;3.00;92.60
66728;DHT22;53641;44.274;19.890;2023-12-20T05:22:28;3.10;92.60
66728;DHT22;53641;44.274;19.890;2023-12-20T05:24:53;1.60;92.20
66728;DHT22;53641;44.274;19.890;2023-12-20T05:27:19;2.80;92.50
66728;DHT22;53641;44.274;19.890;2023-12-20T05:29:45;3.00;92.60
66728;DHT22;53641;44.274;19.890;2023-12-20T05:32:10;2.90;92.50
66728;DHT22;53641;44.274;19.890;2023-12-20T05:34:36;3.00;92.30
66728;DHT22;53641;44.274;19.890;2023-12-20T05:37:02;2.30;92.30
66728;DHT22;53641;44.274;19.890;2023-12-20T05:39:27;3.30;92.40
66728;DHT22;53641;44.274;19.890;2023-12-20T05:41:53;4.60;92.60
66728;DHT22;53641;44.274;19.890;2023-12-20T05:44:19;3.30;92.10
66728;DHT22;53641;44.274;19.890;2023-12-20T05:46:44;1.90;92.00
66728;DHT22;53641;44.274;19.890;2023-12-20T05:49:10;1.80;91.90
66728;DHT22;53641;44.274;19.890;2023-12-20T05:51:36;3.30;92.10
66728;DHT22;53641;44.274;19.890;2023-12-20T05:54:01;3.30;92.10
66728;DHT22;53641;44.274;19.890;2023-12-20T05:56:27;3.20;92.30
66728;DHT22;53641;44.274;19.890;2023-12-20T05:58:53;3.10;92.20
66728;DHT22;53641;44.274;19.890;2023-12-20T06:01:18;3.20;92.30
66728;DHT22;53641;44.274;19.890;2023-12-20T06:03:44;3.20;92.20
66728;DHT22;53641;44.274;19.890;2023-12-20T06:06:11;3.10;92.40
66728;DHT22;53641;44.274;19.890;2023-12-20T06:08:38;3.20;92.50
66728;DHT22;53641;44.274;19.890;2023-12-20T06:11:04;4.10;92.80
66728;DHT22;53641;44.274;19.890;2023-12-20T06:13:30;3.40;92.50
66728;DHT22;53641;44.274;19.890;2023-12-20T06:15:56;3.00;92.50
66728;DHT22;53641;44.274;19.890;2023-12-20T06:18:22;2.90;92.80
66728;DHT22;53641;44.274;19.890;2023-12-20T06:20:47;3.30;92.90
66728;DHT22;53641;44.274;19.890;2023-12-20T06:23:13;3.40;92.80
66728;DHT22;53641;44.274;19.890;2023-12-20T06:25:39;3.30;92.30
66728;DHT22;53641;44.274;19.890;2023-12-20T06:28:04;3.50;92.00
66728;DHT22;53641;44.274;19.890;2023-12-20T06:30:30;3.70;91.50
66728;DHT22;53641;44.274;19.890;2023-12-20T06:32:58;3.50;91.80
66728;DHT22;53641;44.274;19.890;2023-12-20T06:35:24;3.60;91.70
66728;DHT22;53641;44.274;19.890;2023-12-20T06:37:50;3.60;91.90
66728;DHT22;53641;44.274;19.890;2023-12-20T06:40:15;3.70;91.60
66728;DHT22;53641;44.274;19.890;2023-12-20T06:42:41;3.80;91.40
66728;DHT22;53641;44.274;19.890;2023-12-20T06:45:07;4.00;91.60
66728;DHT22;53641;44.274;19.890;2023-12-20T06:47:33;4.10;90.80
66728;DHT22;53641;44.274;19.890;2023-12-20T06:49:59;4.10;90.60
66728;DHT22;53641;44.274;19.890;2023-12-20T06:52:25;4.20;91.10
66728;DHT22;53641;44.274;19.890;2023-12-20T06:54:50;5.00;91.30
66728;DHT22;53641;44.274;19.890;2023-12-20T06:57:19;4.00;91.10
66728;DHT22;53641;44.274;19.890;2023-12-20T06:59:45;4.90;91.10
66728;DHT22;53641;44.274;19.890;2023-12-20T07:02:10;4.20;90.80
66728;DHT22;53641;44.274;19.890;2023-12-20T07:04:42;5.50;91.10
66728;DHT22;53641;44.274;19.890;2023-12-20T07:07:08;4.80;90.20
66728;DHT22;53641;44.274;19.890;2023-12-20T07:09:34;4.20;90.30
66728;DHT22;53641;44.274;19.890;2023-12-20T07:12:01;4.20;90.40
66728;DHT22;53641;44.274;19.890;2023-12-20T07:14:27;3.60;90.50
66728;DHT22;53641;44.274;19.890;2023-12-20T07:16:54;4.90;90.60
66728;DHT22;53641;44.274;19.890;2023-12-20T07:19:20;5.50;90.60
66728;DHT22;53641;44.274;19.890;2023-12-20T07:21:46;4.70;90.20
66728;DHT22;53641;44.274;19.890;2023-12-20T07:24:11;4.70;90.30
66728;DHT22;53641;44.274;19.890;2023-12-20T07:29:29;5.10;90.20
66728;DHT22;53641;44.274;19.890;2023-12-20T07:31:55;4.30;90.30
66728;DHT22;53641;44.274;19.890;2023-12-20T07:34:20;7.00;90.90
66728;DHT22;53641;44.274;19.890;2023-12-20T07:36:49;5.00;89.90
66728;DHT22;53641;44.274;19.890;2023-12-20T07:39:14;5.40;89.30
66728;DHT22;53641;44.274;19.890;2023-12-20T07:41:40;6.50;90.10
66728;DHT22;53641;44.274;19.890;2023-12-20T07:44:06;6.90;90.10
66728;DHT22;53641;44.274;19.890;2023-12-20T07:46:32;4.80;88.50
66728;DHT22;53641;44.274;19.890;2023-12-20T07:49:00;5.20;89.20
66728;DHT22;53641;44.274;19.890;2023-12-20T07:51:25;6.90;90.00
66728;DHT22;53641;44.274;19.890;2023-12-20T07:53:52;6.00;89.30
66728;DHT22;53641;44.274;19.890;2023-12-20T07:56:18;5.90;88.60
66728;DHT22;53641;44.274;19.890;2023-12-20T07:58:44;5.50;88.40
66728;DHT22;53641;44.274;19.890;2023-12-20T08:01:11;6.50;88.70
66728;DHT22;53641;44.274;19.890;2023-12-20T08:03:37;6.40;88.30
66728;DHT22;53641;44.274;19.890;2023-12-20T08:06:02;5.60;88.40
66728;DHT22;53641;44.274;19.890;2023-12-20T08:08:28;6.80;89.00
66728;DHT22;53641;44.274;19.890;2023-12-20T08:10:54;5.90;87.80
66728;DHT22;53641;44.274;19.890;2023-12-20T08:13:20;6.40;87.90
66728;DHT22;53641;44.274;19.890;2023-12-20T08:15:50;6.50;88.50
66728;DHT22;53641;44.274;19.890;2023-12-20T08:18:16;8.00;88.90
66728;DHT22;53641;44.274;19.890;2023-12-20T08:20:45;7.30;87.70
66728;DHT22;53641;44.274;19.890;2023-12-20T08:23:10;6.90;87.00
66728;DHT22;53641;44.274;19.890;2023-12-20T08:25:36;7.10;87.50
66728;DHT22;53641;44.274;19.890;2023-12-20T08:28:02;7.70;86.90
66728;DHT22;53641;44.274;19.890;2023-12-20T08:30:28;7.90;86.90
66728;DHT22;53641;44.274;19.890;2023-12-20T08:32:55;9.00;86.60
66728;DHT22;53641;44.274;19.890;2023-12-20T08:35:20;7.40;83.80
66728;DHT22;53641;44.274;19.890;2023-12-20T08:37:46;9.00;82.70
66728;DHT22;53641;44.274;19.890;2023-12-20T08:40:15;9.40;82.40
66728;DHT22;53641;44.274;19.890;2023-12-20T08:43:01;9.70;81.80
66728;DHT22;53641;44.274;19.890;2023-12-20T08:45:27;10.70;79.60
66728;DHT22;53641;44.274;19.890;2023-12-20T08:47:53;10.40;80.50
66728;DHT22;53641;44.274;19.890;2023-12-20T08:50:18;10.30;80.80
66728;DHT22;53641;44.274;19.890;2023-12-20T08:52:44;9.90;82.30
66728;DHT22;53641;44.274;19.890;2023-12-20T08:55:10;9.30;80.20
66728;DHT22;53641;44.274;19.890;2023-12-20T08:57:40;10.20;81.00
66728;DHT22;53641;44.274;19.890;2023-12-20T09:00:07;9.20;79.70
66728;DHT22;53641;44.274;19.890;2023-12-20T09:02:34;9.80;80.50
66728;DHT22;53641;44.274;19.890;2023-12-20T09:05:01;10.00;84.40
66728;DHT22;53641;44.274;19.890;2023-12-20T09:07:27;9.90;85.20
66728;DHT22;53641;44.274;19.890;2023-12-20T09:09:55;8.90;84.30
66728;DHT22;53641;44.274;19.890;2023-12-20T09:12:21;9.10;84.10
66728;DHT22;53641;44.274;19.890;2023-12-20T09:14:47;9.10;83.10
66728;DHT22;53641;44.274;19.890;2023-12-20T09:17:16;9.50;83.80
66728;DHT22;53641;44.274;19.890;2023-12-20T09:19:43;10.30;83.90
66728;DHT22;53641;44.274;19.890;2023-12-20T09:22:12;10.00;84.40
66728;DHT22;53641;44.274;19.890;2023-12-20T09:24:38;7.70;82.50
66728;DHT22;53641;44.274;19.890;2023-12-20T09:27:04;9.30;82.10
66728;DHT22;53641;44.274;19.890;2023-12-20T09:29:30;11.40;83.80
66728;DHT22;53641;44.274;19.890;2023-12-20T09:31:59;9.80;82.70
66728;DHT22;53641;44.274;19.890;2023-12-20T09:34:25;7.70;82.00
66728;DHT22;53641;44.274;19.890;2023-12-20T09:36:51;10.30;83.80
66728;DHT22;53641;44.274;19.890;2023-12-20T09:39:18;8.50;82.60
66728;DHT22;53641;44.274;19.890;2023-12-20T09:41:53;9.80;83.00
66728;DHT22;53641;44.274;19.890;2023-12-20T09:44:45;9.90;83.20
66728;DHT22;53641;44.274;19.890;2023-12-20T09:47:13;9.90;83.70
66728;DHT22;53641;44.274;19.890;2023-12-20T09:49:41;9.80;83.40
